Time;durP1;ratioP1;P1;durP2;ratioP2;P2;SDS_P1;SDS_P2;PMS_P1;PMS_P2;Temp;Humidity;BMP_temperature;BMP_pressure;BME280_temperature;BME280_humidity;BME280_pressure;Samples;Min_cycle;Max_cycle;Signal;HPM_P1;HPM_P2
2023/02/01 00:02:07;;;;;;;;;6.75;3.25;;;;;;;;5098293;28;11395;-85
2023/02/01 00:04:35;;;;;;;;;6.75;4.00;;;;;;;;5064590;28;11170;-86
2023/02/01 00:07:02;;;;;;;;;5.25;4.00;;;;;;;;5092064;28;11164;-85
2023/02/01 00:09:30;;;;;;;;;7.25;4.50;;;;;;;;5090558;28;11408;-85
2023/02/01 00:12:01;;;;;;;;;5.50;5.50;;;;;;;;5094648;28;11949;-85
2023/02/01 00:14:29;;;;;;;;;6.25;2.50;;;;;;;;5093485;28;11170;-85
2023/02/01 00:16:56;;;;;;;;;5.75;4.00;;;;;;;;5095961;28;11411;-85
2023/02/01 00:19:24;;;;;;;;;3.50;3.50;;;;;;;;5096279;28;11168;-85
2023/02/01 00:21:51;;;;;;;;;8.25;4.00;;;;;;;;5092761;28;11465;-84
2023/02/01 00:24:19;;;;;;;;;6.25;3.50;;;;;;;;5096052;28;12160;-84
2023/02/01 00:26:48;;;;;;;;;3.50;2.75;;;;;;;;5086540;28;11151;-85
2023/02/01 00:29:18;;;;;;;;;6.00;3.00;;;;;;;;5081977;28;11184;-85
2023/02/01 00:31:46;;;;;;;;;4.00;4.00;;;;;;;;5079480;28;10995;-84
2023/02/01 00:34:15;;;;;;;;;3.75;3.75;;;;;;;;5092729;28;11506;-85
2023/02/01 00:36:44;;;;;;;;;2.50;2.50;;;;;;;;5091541;28;11380;-85
2023/02/01 00:39:12;;;;;;;;;2.25;2.25;;;;;;;;5100977;28;12030;-84
2023/02/01 00:41:40;;;;;;;;;1.00;0.50;;;;;;;;5104577;28;11208;-84
2023/02/01 00:44:07;;;;;;;;;3.00;3.00;;;;;;;;5103506;28;11470;-85
2023/02/01 00:46:37;;;;;;;;;4.50;3.00;;;;;;;;5094852;28;11380;-85
2023/02/01 00:49:07;;;;;;;;;3.25;3.25;;;;;;;;5099892;28;11374;-84
2023/02/01 00:51:35;;;;;;;;;3.00;3.00;;;;;;;;5096897;28;11406;-85
2023/02/01 00:54:03;;;;;;;;;6.00;2.00;;;;;;;;5097905;28;11408;-85
2023/02/01 00:56:31;;;;;;;;;3.25;2.50;;;;;;;;5096558;28;13151;-86
2023/02/01 00:58:58;;;;;;;;;1.00;1.00;;;;;;;;5093963;28;11427;-84
2023/02/01 01:01:27;;;;;;;;;4.50;3.75;;;;;;;;5093848;28;11144;-84
2023/02/01 01:03:58;;;;;;;;;2.75;2.75;;;;;;;;5087286;28;11393;-84
2023/02/01 01:06:27;;;;;;;;;2.75;2.75;;;;;;;;5096003;28;11420;-84
2023/02/01 01:08:55;;;;;;;;;2.50;2.00;;;;;;;;5092547;28;11432;-84
2023/02/01 01:11:25;;;;;;;;;5.00;3.75;;;;;;;;5092333;27;11379;-84
2023/02/01 01:13:54;;;;;;;;;3.75;3.00;;;;;;;;5080799;28;11415;-85
2023/02/01 01:16:23;;;;;;;;;4.50;3.75;;;;;;;;5094742;28;11434;-84
2023/02/01 01:18:51;;;;;;;;;3.50;2.00;;;;;;;;5094521;28;11431;-84
2023/02/01 01:21:20;;;;;;;;;4.50;3.00;;;;;;;;5080933;28;11559;-84
2023/02/01 01:23:48;;;;;;;;;3.25;3.25;;;;;;;;5097842;28;11410;-85
2023/02/01 01:26:18;;;;;;;;;4.00;4.00;;;;;;;;5088309;28;11441;-84
2023/02/01 01:28:46;;;;;;;;;4.00;2.50;;;;;;;;5099548;28;11422;-86
2023/02/01 01:31:15;;;;;;;;;8.00;3.00;;;;;;;;5065982;28;11415;-85
2023/02/01 01:33:43;;;;;;;;;8.25;2.75;;;;;;;;5095253;28;11420;-85
2023/02/01 01:36:12;;;;;;;;;2.00;2.00;;;;;;;;5093472;28;11474;-85
2023/02/01 01:38:42;;;;;;;;;4.25;3.75;;;;;;;;5097643;28;11504;-85
2023/02/01 01:41:10;;;;;;;;;4.00;4.00;;;;;;;;5100157;28;11416;-86
2023/02/01 01:43:53;;;;;;;;;6.25;5.25;;;;;;;;5091190;28;11398;-85
2023/02/01 01:46:22;;;;;;;;;7.75;5.00;;;;;;;;5087614;28;11408;-86
2023/02/01 01:48:53;;;;;;;;;5.00;4.50;;;;;;;;5093803;28;11405;-87
2023/02/01 01:51:23;;;;;;;;;6.00;6.00;;;;;;;;5080189;28;11442;-86
2023/02/01 01:53:58;;;;;;;;;5.00;3.00;;;;;;;;5074134;28;11569;-87
2023/02/01 01:56:28;;;;;;;;;3.25;3.25;;;;;;;;5095955;28;11364;-86
2023/02/01 01:58:56;;;;;;;;;9.25;5.50;;;;;;;;5073280;28;11408;-87
2023/02/01 02:01:24;;;;;;;;;2.25;2.25;;;;;;;;5079830;28;11329;-87
2023/02/01 02:03:52;;;;;;;;;3.00;3.00;;;;;;;;5097948;28;12220;-86
2023/02/01 02:06:28;;;;;;;;;5.75;4.00;;;;;;;;5082253;28;11419;-86
2023/02/01 02:08:57;;;;;;;;;1.00;1.00;;;;;;;;5094809;28;11385;-86
2023/02/01 02:11:25;;;;;;;;;3.25;3.00;;;;;;;;5093379;28;11413;-86
2023/02/01 02:13:55;;;;;;;;;5.25;2.00;;;;;;;;5091937;28;11464;-86
2023/02/01 02:16:53;;;;;;;;;3.75;3.00;;;;;;;;5098122;28;11423;-87
2023/02/01 02:20:00;;;;;;;;;8.25;4.50;;;;;;;;5066821;28;11469;-86
2023/02/01 02:22:43;;;;;;;;;11.25;6.75;;;;;;;;5093502;28;11410;-86
2023/02/01 02:25:44;;;;;;;;;7.25;4.75;;;;;;;;5064253;28;11431;-86
2023/02/01 02:28:42;;;;;;;;;5.50;3.75;;;;;;;;5075241;28;11420;-85
2023/02/01 02:31:26;;;;;;;;;8.25;6.00;;;;;;;;5104202;27;11349;-84
2023/02/01 02:34:00;;;;;;;;;3.00;3.00;;;;;;;;5070644;28;11426;-85
2023/02/01 02:36:38;;;;;;;;;7.50;3.25;;;;;;;;5105384;28;11346;-86
2023/02/01 02:39:11;;;;;;;;;8.25;3.00;;;;;;;;5081816;28;11419;-86
2023/02/01 02:47:35;;;;;;;;;2.25;2.25;;;;;;;;5083063;28;11400;-85
2023/02/01 03:04:17;;;;;;;;;8.25;3.00;;;;;;;;5084429;28;11403;-86
2023/02/01 03:06:46;;;;;;;;;4.50;3.75;;;;;;;;5097480;28;11416;-86
2023/02/01 03:09:19;;;;;;;;;6.50;4.00;;;;;;;;5098147;27;11404;-86
2023/02/01 03:14:35;;;;;;;;;9.50;6.00;;;;;;;;5081132;28;11333;-87
2023/02/01 03:17:06;;;;;;;;;5.25;3.75;;;;;;;;5083476;28;11412;-87
2023/02/01 03:19:37;;;;;;;;;8.00;4.50;;;;;;;;5091730;28;11453;-87
2023/02/01 03:22:08;;;;;;;;;6.50;5.75;;;;;;;;5097921;28;11459;-87
2023/02/01 03:24:40;;;;;;;;;3.75;3.00;;;;;;;;5096086;27;11405;-87
2023/02/01 03:27:12;;;;;;;;;4.25;4.25;;;;;;;;5101050;28;11503;-87
2023/02/01 03:29:43;;;;;;;;;8.25;3.00;;;;;;;;5080363;28;11523;-87
2023/02/01 03:32:11;;;;;;;;;5.50;3.50;;;;;;;;5097763;28;11542;-86
2023/02/01 03:34:39;;;;;;;;;6.50;5.00;;;;;;;;5087653;28;11556;-86
2023/02/01 03:37:11;;;;;;;;;5.75;2.75;;;;;;;;5099964;28;11451;-87
2023/02/01 03:39:43;;;;;;;;;2.75;2.75;;;;;;;;5083414;28;11488;-87
2023/02/01 03:42:14;;;;;;;;;7.00;6.00;;;;;;;;5096178;28;11481;-87
2023/02/01 03:44:48;;;;;;;;;9.25;4.25;;;;;;;;5103531;28;11522;-86
2023/02/01 03:47:21;;;;;;;;;6.00;5.50;;;;;;;;5086170;28;11467;-87
2023/02/01 03:49:50;;;;;;;;;7.25;3.50;;;;;;;;5069926;28;11509;-87
2023/02/01 03:52:24;;;;;;;;;5.00;3.00;;;;;;;;5096394;28;11478;-87
2023/02/01 03:54:53;;;;;;;;;7.50;6.00;;;;;;;;5083641;28;11420;-87
2023/02/01 03:57:27;;;;;;;;;7.25;5.50;;;;;;;;5084449;28;11479;-87
2023/02/01 03:59:56;;;;;;;;;4.50;2.50;;;;;;;;5090513;28;11588;-87
2023/02/01 04:02:23;;;;;;;;;4.75;3.00;;;;;;;;5099313;28;11430;-87
2023/02/01 04:04:51;;;;;;;;;5.50;2.75;;;;;;;;5063127;28;11392;-88
2023/02/01 04:07:20;;;;;;;;;7.00;7.00;;;;;;;;5079327;28;11787;-87
2023/02/01 04:09:47;;;;;;;;;9.00;2.25;;;;;;;;5081029;28;11444;-86
2023/02/01 04:12:15;;;;;;;;;3.00;3.00;;;;;;;;5063906;27;11379;-85
2023/02/01 04:14:43;;;;;;;;;2.00;0.75;;;;;;;;5089771;28;11524;-85
2023/02/01 04:17:10;;;;;;;;;5.50;5.50;;;;;;;;5074500;28;11433;-85
2023/02/01 04:19:38;;;;;;;;;4.00;4.00;;;;;;;;5088437;28;11491;-84
2023/02/01 04:22:05;;;;;;;;;9.50;6.00;;;;;;;;5093938;28;11524;-85
2023/02/01 04:24:36;;;;;;;;;5.00;5.00;;;;;;;;5081599;28;11682;-85
2023/02/01 04:27:04;;;;;;;;;2.75;2.75;;;;;;;;5088793;28;11463;-84
2023/02/01 04:29:31;;;;;;;;;5.00;5.00;;;;;;;;5095405;28;11477;-85
2023/02/01 04:31:59;;;;;;;;;5.00;5.00;;;;;;;;5098941;27;11408;-85
2023/02/01 04:34:26;;;;;;;;;3.00;3.00;;;;;;;;5085041;28;11486;-84
2023/02/01 04:36:54;;;;;;;;;6.00;5.00;;;;;;;;5075320;28;11481;-84
2023/02/01 04:39:21;;;;;;;;;8.75;6.75;;;;;;;;5104221;27;11457;-85
2023/02/01 04:41:50;;;;;;;;;5.00;4.50;;;;;;;;5084581;28;12183;-85
2023/02/01 04:44:19;;;;;;;;;7.00;6.75;;;;;;;;5082071;28;11480;-84
2023/02/01 04:46:48;;;;;;;;;5.00;5.00;;;;;;;;5097202;27;11511;-84
2023/02/01 04:49:16;;;;;;;;;5.25;3.00;;;;;;;;5097627;28;11522;-84
2023/02/01 04:51:45;;;;;;;;;5.25;5.00;;;;;;;;5093514;28;11476;-84
2023/02/01 04:54:13;;;;;;;;;7.25;5.00;;;;;;;;5079710;27;11465;-85
2023/02/01 04:56:40;;;;;;;;;3.50;3.50;;;;;;;;5072092;28;11502;-84
2023/02/01 04:59:11;;;;;;;;;6.75;3.50;;;;;;;;5099561;27;11517;-85
2023/02/01 05:01:38;;;;;;;;;7.25;2.00;;;;;;;;5086325;28;11379;-84
2023/02/01 05:04:06;;;;;;;;;3.00;3.00;;;;;;;;5082375;28;11447;-85
2023/02/01 05:06:34;;;;;;;;;3.50;3.50;;;;;;;;5064205;28;11522;-86
2023/02/01 05:09:01;;;;;;;;;4.25;2.75;;;;;;;;5097510;28;11512;-84
2023/02/01 05:14:15;;;;;;;;;3.25;2.25;;;;;;;;5101124;27;11446;-84
2023/02/01 05:16:42;;;;;;;;;4.50;4.50;;;;;;;;5096529;28;11469;-85
2023/02/01 05:19:10;;;;;;;;;4.50;2.50;;;;;;;;5098378;28;11465;-85
2023/02/01 05:21:37;;;;;;;;;5.50;2.00;;;;;;;;5098488;28;12178;-85
2023/02/01 05:24:12;;;;;;;;;7.00;2.00;;;;;;;;5081563;28;11438;-85
2023/02/01 05:26:41;;;;;;;;;1.75;1.75;;;;;;;;5082138;28;11429;-84
2023/02/01 05:29:10;;;;;;;;;2.00;2.00;;;;;;;;5080958;28;11432;-85
2023/02/01 05:31:39;;;;;;;;;5.25;4.00;;;;;;;;5098742;28;11321;-85
2023/02/01 05:34:07;;;;;;;;;6.00;3.25;;;;;;;;5093964;28;11414;-84
2023/02/01 05:36:35;;;;;;;;;5.75;2.50;;;;;;;;5083100;28;11557;-84
2023/02/01 05:39:02;;;;;;;;;3.00;1.25;;;;;;;;5084662;28;11587;-86
2023/02/01 05:41:30;;;;;;;;;2.25;2.25;;;;;;;;5097055;28;11472;-82
2023/02/01 05:43:57;;;;;;;;;5.25;3.25;;;;;;;;5073929;28;11435;-83
2023/02/01 05:46:24;;;;;;;;;3.00;3.00;;;;;;;;5090709;28;11433;-84
2023/02/01 05:48:54;;;;;;;;;3.75;2.00;;;;;;;;5079294;28;11460;-84
2023/02/01 05:51:24;;;;;;;;;24.25;17.00;;;;;;;;5058030;28;11378;-85
2023/02/01 05:53:52;;;;;;;;;13.00;9.50;;;;;;;;5090740;28;11624;-83
2023/02/01 05:56:19;;;;;;;;;18.00;18.00;;;;;;;;5071827;28;11412;-84
2023/02/01 05:58:47;;;;;;;;;11.50;9.75;;;;;;;;5097739;28;11558;-84
2023/02/01 06:01:15;;;;;;;;;7.00;5.50;;;;;;;;5097324;27;12246;-84
2023/02/01 06:03:42;;;;;;;;;7.50;7.50;;;;;;;;5092861;28;11424;-83
2023/02/01 06:06:11;;;;;;;;;4.50;3.25;;;;;;;;5099616;27;11391;-83
2023/02/01 06:08:40;;;;;;;;;4.00;2.00;;;;;;;;5054899;28;11430;-84
2023/02/01 06:11:07;;;;;;;;;6.75;3.00;;;;;;;;5091858;28;11431;-84
2023/02/01 06:13:37;;;;;;;;;3.75;2.50;;;;;;;;5092932;28;11441;-81
2023/02/01 06:16:08;;;;;;;;;2.75;2.25;;;;;;;;5088464;28;11409;-83
2023/02/01 06:18:37;;;;;;;;;2.25;2.25;;;;;;;;5085043;28;11413;-82
2023/02/01 06:21:05;;;;;;;;;3.00;3.00;;;;;;;;5097814;28;11472;-82
2023/02/01 06:23:34;;;;;;;;;2.50;2.50;;;;;;;;5099589;28;11583;-84
2023/02/01 06:26:03;;;;;;;;;3.75;2.50;;;;;;;;5080623;28;11458;-84
2023/02/01 06:28:32;;;;;;;;;6.00;6.00;;;;;;;;5081923;28;11537;-83
2023/02/01 06:31:06;;;;;;;;;6.75;2.75;;;;;;;;5095011;28;11298;-84
2023/02/01 06:33:34;;;;;;;;;5.25;3.25;;;;;;;;5103063;28;12258;-85
2023/02/01 06:36:03;;;;;;;;;8.00;2.00;;;;;;;;5097519;28;11501;-85
2023/02/01 06:38:31;;;;;;;;;10.75;5.25;;;;;;;;5103094;28;11504;-85
2023/02/01 06:41:00;;;;;;;;;7.50;6.50;;;;;;;;5101920;28;11501;-84
2023/02/01 06:43:28;;;;;;;;;8.00;5.50;;;;;;;;5083322;28;11465;-83
2023/02/01 06:46:01;;;;;;;;;5.50;5.00;;;;;;;;5098740;28;11508;-83
2023/02/01 06:48:29;;;;;;;;;6.75;5.00;;;;;;;;5083168;28;11515;-84
2023/02/01 06:50:56;;;;;;;;;6.50;5.00;;;;;;;;5103320;28;11506;-83
2023/02/01 06:53:24;;;;;;;;;12.50;6.50;;;;;;;;5080334;28;11483;-83
2023/02/01 06:55:56;;;;;;;;;5.50;5.00;;;;;;;;5099527;28;11487;-84
2023/02/01 06:58:25;;;;;;;;;10.50;7.50;;;;;;;;5098217;28;11482;-82
2023/02/01 07:00:53;;;;;;;;;6.00;3.00;;;;;;;;5102350;28;11398;-73
2023/02/01 07:03:21;;;;;;;;;7.00;5.75;;;;;;;;5097669;28;11439;-74
2023/02/01 07:05:48;;;;;;;;;8.50;6.50;;;;;;;;5102282;28;11452;-73
2023/02/01 07:08:16;;;;;;;;;16.50;11.50;;;;;;;;5082330;28;11537;-77
2023/02/01 07:10:43;;;;;;;;;8.00;8.00;;;;;;;;5083256;28;11918;-75
2023/02/01 07:13:10;;;;;;;;;16.50;15.00;;;;;;;;5092225;28;11462;-73
2023/02/01 07:15:39;;;;;;;;;19.50;15.50;;;;;;;;5092510;28;12327;-74
2023/02/01 07:18:07;;;;;;;;;15.25;11.75;;;;;;;;5099239;28;12284;-74
2023/02/01 07:20:34;;;;;;;;;15.50;11.00;;;;;;;;5094646;28;11450;-74
2023/02/01 07:23:01;;;;;;;;;15.25;11.25;;;;;;;;5077095;28;11448;-74
2023/02/01 07:25:29;;;;;;;;;14.75;12.00;;;;;;;;5099742;28;11571;-73
2023/02/01 07:27:57;;;;;;;;;20.75;13.75;;;;;;;;5087052;28;11506;-75
2023/02/01 07:30:25;;;;;;;;;21.00;19.75;;;;;;;;5084069;27;11428;-74
2023/02/01 07:32:55;;;;;;;;;21.25;20.75;;;;;;;;5076391;28;11957;-72
2023/02/01 07:35:22;;;;;;;;;54.50;39.50;;;;;;;;5082153;28;11513;-72
2023/02/01 07:37:50;;;;;;;;;33.75;33.50;;;;;;;;5083169;28;11568;-74
2023/02/01 07:40:18;;;;;;;;;46.50;39.50;;;;;;;;5080744;28;11590;-73
2023/02/01 07:42:45;;;;;;;;;33.75;30.75;;;;;;;;5096015;28;11586;-72
2023/02/01 07:45:15;;;;;;;;;30.00;28.75;;;;;;;;5079243;28;11441;-72
2023/02/01 07:47:42;;;;;;;;;23.50;18.25;;;;;;;;5094652;28;11563;-72
2023/02/01 07:50:12;;;;;;;;;31.75;25.25;;;;;;;;5095827;28;11550;-70
2023/02/01 07:52:39;;;;;;;;;25.50;19.00;;;;;;;;5093476;28;11508;-71
2023/02/01 07:55:08;;;;;;;;;29.00;20.75;;;;;;;;5097316;28;11538;-70
2023/02/01 07:57:35;;;;;;;;;10.00;9.00;;;;;;;;5096549;28;11446;-71
2023/02/01 08:02:47;;;;;;;;;7.75;6.50;;;;;;;;5084687;28;11393;-71
2023/02/01 08:05:16;;;;;;;;;9.00;5.75;;;;;;;;5096086;28;11437;-71
2023/02/01 08:07:44;;;;;;;;;14.00;6.75;;;;;;;;5096355;27;11606;-71
2023/02/01 08:10:12;;;;;;;;;9.00;6.75;;;;;;;;5088639;28;11502;-72
2023/02/01 08:12:40;;;;;;;;;8.00;7.75;;;;;;;;5095483;28;12414;-71
2023/02/01 08:15:09;;;;;;;;;8.25;6.00;;;;;;;;5080323;28;11487;-71
2023/02/01 08:17:36;;;;;;;;;9.00;4.50;;;;;;;;5097078;28;11498;-70
2023/02/01 08:20:04;;;;;;;;;7.75;6.00;;;;;;;;5089006;28;11458;-71
2023/02/01 08:22:34;;;;;;;;;10.50;7.25;;;;;;;;5080511;28;11454;-71
2023/02/01 08:25:02;;;;;;;;;7.50;7.50;;;;;;;;5095599;27;11462;-73
2023/02/01 08:27:30;;;;;;;;;7.00;7.00;;;;;;;;5098352;27;11364;-71
2023/02/01 08:29:57;;;;;;;;;9.75;6.00;;;;;;;;5093148;28;11395;-71
2023/02/01 08:32:25;;;;;;;;;5.25;4.00;;;;;;;;5095425;27;11323;-71
2023/02/01 08:34:52;;;;;;;;;8.75;5.25;;;;;;;;5097199;27;11562;-71
2023/02/01 08:37:20;;;;;;;;;8.00;6.00;;;;;;;;5093789;28;11490;-71
2023/02/01 08:39:50;;;;;;;;;6.75;6.75;;;;;;;;5094768;28;12328;-72
2023/02/01 08:45:02;;;;;;;;;7.50;3.00;;;;;;;;5088453;27;12180;-71
2023/02/01 08:47:30;;;;;;;;;5.75;3.00;;;;;;;;5097312;28;11432;-71
2023/02/01 08:49:57;;;;;;;;;3.00;3.00;;;;;;;;5090322;28;11433;-71
2023/02/01 08:52:25;;;;;;;;;6.00;3.50;;;;;;;;5076057;28;11416;-73
2023/02/01 08:54:54;;;;;;;;;11.00;6.75;;;;;;;;5094584;28;11398;-74
2023/02/01 08:57:21;;;;;;;;;5.00;4.00;;;;;;;;5093354;28;12205;-73
2023/02/01 08:59:49;;;;;;;;;4.00;4.00;;;;;;;;5048140;27;11407;-73
2023/02/01 09:02:17;;;;;;;;;8.00;4.00;;;;;;;;5078382;28;11328;-71
2023/02/01 09:04:45;;;;;;;;;5.00;3.00;;;;;;;;5070446;28;11740;-71
2023/02/01 09:07:12;;;;;;;;;7.00;4.50;;;;;;;;5080532;28;11772;-72
2023/02/01 09:09:40;;;;;;;;;8.00;4.00;;;;;;;;5081594;28;11439;-72
2023/02/01 09:12:09;;;;;;;;;3.50;3.50;;;;;;;;5090539;28;11382;-71
2023/02/01 09:14:36;;;;;;;;;9.25;5.50;;;;;;;;5094698;27;11409;-75
2023/02/01 09:17:05;;;;;;;;;8.50;7.00;;;;;;;;5081297;28;11180;-73
2023/02/01 09:19:32;;;;;;;;;5.00;3.00;;;;;;;;5087425;27;11435;-75
2023/02/01 09:22:00;;;;;;;;;4.00;3.00;;;;;;;;5090270;28;11257;-73
2023/02/01 09:24:27;;;;;;;;;9.00;3.75;;;;;;;;5092411;28;11018;-73
2023/02/01 09:26:55;;;;;;;;;9.50;6.00;;;;;;;;5091570;27;12308;-72
2023/02/01 09:29:23;;;;;;;;;6.00;3.00;;;;;;;;5077681;28;11075;-72
2023/02/01 09:31:51;;;;;;;;;6.00;3.00;;;;;;;;5078670;28;10938;-72
2023/02/01 09:34:18;;;;;;;;;8.75;4.00;;;;;;;;5094561;27;11075;-72
2023/02/01 09:36:46;;;;;;;;;6.00;3.00;;;;;;;;5094842;28;11679;-73
2023/02/01 09:39:13;;;;;;;;;4.00;3.00;;;;;;;;5080015;27;11127;-73
2023/02/01 09:41:51;;;;;;;;;3.25;3.25;;;;;;;;5077063;28;10959;-72
2023/02/01 09:44:48;;;;;;;;;8.50;6.00;;;;;;;;5091523;28;10965;-72
2023/02/01 09:47:19;;;;;;;;;4.00;4.00;;;;;;;;5073923;28;11340;-73
2023/02/01 09:49:52;;;;;;;;;7.00;3.25;;;;;;;;5090914;28;10680;-72
2023/02/01 09:52:24;;;;;;;;;4.75;2.75;;;;;;;;5099389;28;10792;-72
2023/02/01 09:54:58;;;;;;;;;4.50;2.50;;;;;;;;5090050;28;10454;-73
2023/02/01 09:57:28;;;;;;;;;2.50;2.50;;;;;;;;5099690;28;10608;-73
2023/02/01 10:00:01;;;;;;;;;6.00;3.25;;;;;;;;5089029;28;10667;-72
2023/02/01 10:02:31;;;;;;;;;2.00;2.00;;;;;;;;5097753;27;10689;-71
2023/02/01 10:05:00;;;;;;;;;7.75;3.00;;;;;;;;5094888;28;10695;-70
2023/02/01 10:07:34;;;;;;;;;7.25;3.00;;;;;;;;5098188;28;10665;-70
2023/02/01 10:10:05;;;;;;;;;5.25;3.00;;;;;;;;5100085;27;10665;-70
2023/02/01 10:13:08;;;;;;;;;3.00;3.00;;;;;;;;5098448;27;10654;-70
2023/02/01 10:15:44;;;;;;;;;4.25;3.00;;;;;;;;5089158;27;10462;-70
2023/02/01 10:18:33;;;;;;;;;7.25;3.75;;;;;;;;5097548;27;10513;-70
2023/02/01 10:21:06;;;;;;;;;4.00;4.00;;;;;;;;5099086;28;10429;-71
2023/02/01 10:23:49;;;;;;;;;3.00;3.00;;;;;;;;5081402;28;10384;-73
2023/02/01 10:26:20;;;;;;;;;6.00;2.75;;;;;;;;5077425;28;10308;-72
2023/02/01 10:28:50;;;;;;;;;6.50;3.50;;;;;;;;5096681;28;11641;-72
2023/02/01 10:31:19;;;;;;;;;5.00;4.75;;;;;;;;5095368;27;10038;-72
2023/02/01 10:33:51;;;;;;;;;4.75;3.25;;;;;;;;5101710;27;10069;-72
2023/02/01 10:36:23;;;;;;;;;3.00;3.00;;;;;;;;5098328;28;10014;-72
2023/02/01 10:38:50;;;;;;;;;4.00;2.50;;;;;;;;5091872;27;10526;-73
2023/02/01 10:41:20;;;;;;;;;3.00;2.00;;;;;;;;5099964;27;10006;-71
2023/02/01 10:43:51;;;;;;;;;10.00;2.50;;;;;;;;5099142;28;9765;-70
2023/02/01 10:46:19;;;;;;;;;2.25;1.75;;;;;;;;5097851;28;10536;-71
2023/02/01 10:48:49;;;;;;;;;4.00;2.50;;;;;;;;5073501;28;9676;-73
2023/02/01 10:51:21;;;;;;;;;0.50;0.00;;;;;;;;5079900;27;9527;-71
2023/02/01 10:53:54;;;;;;;;;4.50;3.00;;;;;;;;5079529;28;9556;-73
2023/02/01 10:56:24;;;;;;;;;2.00;2.00;;;;;;;;5098872;27;9445;-72
2023/02/01 10:58:52;;;;;;;;;3.50;3.00;;;;;;;;5100261;28;9609;-72
2023/02/01 11:01:22;;;;;;;;;3.00;1.75;;;;;;;;5064804;28;9415;-72
2023/02/01 11:03:55;;;;;;;;;3.75;2.25;;;;;;;;5081491;28;9665;-72
2023/02/01 11:06:31;;;;;;;;;4.75;4.00;;;;;;;;5097312;27;9542;-70
2023/02/01 11:09:00;;;;;;;;;4.00;4.00;;;;;;;;5079470;28;9743;-73
2023/02/01 11:11:29;;;;;;;;;4.50;3.00;;;;;;;;5100536;28;9707;-70
2023/02/01 11:13:58;;;;;;;;;3.00;1.75;;;;;;;;5099789;28;9991;-71
2023/02/01 11:16:35;;;;;;;;;3.50;0.25;;;;;;;;5081216;28;9596;-71
2023/02/01 11:19:05;;;;;;;;;3.50;2.00;;;;;;;;5097228;27;9732;-71
2023/02/01 11:21:32;;;;;;;;;2.00;2.00;;;;;;;;5096164;27;9964;-71
2023/02/01 11:24:03;;;;;;;;;3.25;3.25;;;;;;;;5092878;28;9915;-72
2023/02/01 11:26:32;;;;;;;;;3.00;1.75;;;;;;;;5093539;27;9776;-72
2023/02/01 11:29:02;;;;;;;;;3.00;3.00;;;;;;;;5087536;27;9897;-72
2023/02/01 11:31:30;;;;;;;;;3.25;2.75;;;;;;;;5093781;27;9676;-71
2023/02/01 11:34:09;;;;;;;;;1.50;1.50;;;;;;;;5099166;27;9925;-71
2023/02/01 11:36:37;;;;;;;;;3.50;3.50;;;;;;;;5087846;28;10712;-71
2023/02/01 11:39:24;;;;;;;;;9.00;3.00;;;;;;;;5080455;28;9992;-71
2023/02/01 11:42:05;;;;;;;;;5.00;3.00;;;;;;;;5087797;28;10081;-72
2023/02/01 11:44:35;;;;;;;;;3.00;1.00;;;;;;;;5102683;27;10104;-69
2023/02/01 11:47:27;;;;;;;;;4.00;4.00;;;;;;;;5094808;27;9760;-71
2023/02/01 11:49:58;;;;;;;;;2.75;2.00;;;;;;;;5074514;28;10007;-74
2023/02/01 11:52:40;;;;;;;;;3.00;3.00;;;;;;;;5079804;28;9916;-73
2023/02/01 11:55:45;;;;;;;;;3.50;2.00;;;;;;;;5098349;27;9935;-76
2023/02/01 11:58:26;;;;;;;;;7.25;3.75;;;;;;;;5088461;27;9952;-75
2023/02/01 12:01:12;;;;;;;;;5.00;3.00;;;;;;;;5093227;28;9979;-76
2023/02/01 12:04:12;;;;;;;;;2.00;2.00;;;;;;;;5094526;28;10881;-72
2023/02/01 12:06:49;;;;;;;;;2.50;2.50;;;;;;;;5073106;28;10116;-74
2023/02/01 12:09:30;;;;;;;;;3.00;3.00;;;;;;;;5076736;27;9993;-74
2023/02/01 12:12:09;;;;;;;;;4.00;4.00;;;;;;;;5080618;28;9972;-72
2023/02/01 12:14:47;;;;;;;;;3.25;2.00;;;;;;;;5094993;27;9897;-74
2023/02/01 12:17:40;;;;;;;;;7.25;3.00;;;;;;;;5091045;28;9963;-74
2023/02/01 12:20:35;;;;;;;;;3.50;2.00;;;;;;;;5092020;28;10762;-73
2023/02/01 12:23:18;;;;;;;;;3.50;2.00;;;;;;;;5078012;28;10028;-75
2023/02/01 12:26:00;;;;;;;;;4.00;3.00;;;;;;;;5096872;28;10742;-72
2023/02/01 12:28:41;;;;;;;;;3.50;3.50;;;;;;;;5094006;27;10008;-71
2023/02/01 12:31:33;;;;;;;;;5.00;3.00;;;;;;;;5093686;28;10026;-71
2023/02/01 12:34:17;;;;;;;;;10.25;4.25;;;;;;;;5032321;28;10057;-71
2023/02/01 12:36:49;;;;;;;;;2.50;2.25;;;;;;;;5094108;28;10158;-72
2023/02/01 12:39:25;;;;;;;;;6.75;4.00;;;;;;;;5077029;28;10227;-71
2023/02/01 12:41:58;;;;;;;;;4.50;2.75;;;;;;;;5077544;28;10165;-70
2023/02/01 12:44:43;;;;;;;;;4.00;3.25;;;;;;;;5096726;28;9833;-71
2023/02/01 12:47:18;;;;;;;;;4.75;4.00;;;;;;;;5088425;28;9989;-72
2023/02/01 12:49:57;;;;;;;;;3.00;3.00;;;;;;;;5097793;27;9994;-74
2023/02/01 12:52:34;;;;;;;;;4.75;3.75;;;;;;;;5087259;27;9893;-73
2023/02/01 12:55:09;;;;;;;;;12.50;4.25;;;;;;;;5084094;28;10005;-72
2023/02/01 12:57:40;;;;;;;;;4.75;3.50;;;;;;;;5097056;28;10168;-73
2023/02/01 13:00:21;;;;;;;;;6.50;4.00;;;;;;;;5076278;28;9939;-72
2023/02/01 13:02:53;;;;;;;;;4.50;4.50;;;;;;;;5096301;27;10135;-73
2023/02/01 13:05:23;;;;;;;;;8.25;4.25;;;;;;;;5094965;28;10162;-73
2023/02/01 13:07:54;;;;;;;;;9.00;3.25;;;;;;;;5096994;27;10061;-74
2023/02/01 13:10:31;;;;;;;;;4.50;3.00;;;;;;;;5094871;27;9887;-72
2023/02/01 13:13:03;;;;;;;;;5.25;2.25;;;;;;;;5096161;27;9861;-72
2023/02/01 13:15:34;;;;;;;;;7.50;3.50;;;;;;;;5077631;28;9994;-73
2023/02/01 13:18:04;;;;;;;;;4.00;4.00;;;;;;;;5095786;27;10737;-73
2023/02/01 13:20:35;;;;;;;;;3.00;3.00;;;;;;;;5075271;28;9904;-73
2023/02/01 13:23:05;;;;;;;;;3.00;3.00;;;;;;;;5091925;28;9830;-73
2023/02/01 13:25:39;;;;;;;;;8.00;4.50;;;;;;;;5089754;28;10700;-73
2023/02/01 13:28:12;;;;;;;;;3.00;3.00;;;;;;;;5086586;28;9940;-73
2023/02/01 13:30:56;;;;;;;;;7.00;3.00;;;;;;;;5082305;27;10021;-73
2023/02/01 13:33:51;;;;;;;;;3.50;3.50;;;;;;;;5089439;28;9894;-73
2023/02/01 13:36:34;;;;;;;;;4.25;3.00;;;;;;;;5089979;28;10499;-74
2023/02/01 13:39:37;;;;;;;;;4.75;2.75;;;;;;;;5098725;28;9929;-73
2023/02/01 13:42:13;;;;;;;;;7.00;4.00;;;;;;;;5087653;28;10010;-73
2023/02/01 13:44:44;;;;;;;;;6.00;3.00;;;;;;;;5087652;28;10002;-73
2023/02/01 13:47:18;;;;;;;;;2.00;2.00;;;;;;;;5095263;28;10097;-72
2023/02/01 13:49:45;;;;;;;;;5.00;3.00;;;;;;;;5097337;28;10686;-72
2023/02/01 13:52:30;;;;;;;;;3.00;3.00;;;;;;;;5093188;28;10770;-73
2023/02/01 13:55:15;;;;;;;;;2.00;2.00;;;;;;;;5082843;28;10125;-73
2023/02/01 13:57:45;;;;;;;;;8.50;2.75;;;;;;;;5094717;28;9828;-73
2023/02/01 14:00:26;;;;;;;;;0.00;0.00;;;;;;;;5086028;27;9757;-71
2023/02/01 14:03:17;;;;;;;;;2.75;2.75;;;;;;;;5077388;28;9775;-74
2023/02/01 14:06:03;;;;;;;;;3.75;2.00;;;;;;;;5086496;28;9898;-73
2023/02/01 14:08:42;;;;;;;;;6.50;2.00;;;;;;;;5077214;28;9800;-73
2023/02/01 14:11:35;;;;;;;;;3.50;2.75;;;;;;;;5094084;28;9685;-73
2023/02/01 14:14:45;;;;;;;;;1.00;1.00;;;;;;;;5094965;28;9737;-73
2023/02/01 14:17:39;;;;;;;;;2.50;2.00;;;;;;;;5091856;28;9745;-72
2023/02/01 14:20:55;;;;;;;;;3.25;2.00;;;;;;;;5067364;28;9704;-73
2023/02/01 14:23:33;;;;;;;;;2.50;2.00;;;;;;;;5087777;28;9459;-72
2023/02/01 14:26:12;;;;;;;;;2.00;2.00;;;;;;;;5083388;28;9385;-73
2023/02/01 14:28:48;;;;;;;;;2.00;2.00;;;;;;;;5075864;28;9325;-72
2023/02/01 14:31:31;;;;;;;;;3.33;1.67;;;;;;;;5097449;28;9322;-72
2023/02/01 14:34:01;;;;;;;;;2.00;2.00;;;;;;;;5074777;28;9458;-72
2023/02/01 14:36:41;;;;;;;;;2.00;2.00;;;;;;;;5094732;28;9530;-73
2023/02/01 14:39:21;;;;;;;;;1.25;1.25;;;;;;;;5095396;28;9736;-72
2023/02/01 14:41:49;;;;;;;;;2.75;1.00;;;;;;;;5091016;28;9690;-73
2023/02/01 14:44:29;;;;;;;;;3.25;2.00;;;;;;;;5067880;27;9539;-72
2023/02/01 14:47:31;;;;;;;;;1.25;1.25;;;;;;;;5087439;28;9613;-72
2023/02/01 14:50:20;;;;;;;;;1.00;0.67;;;;;;;;5092698;28;9478;-72
2023/02/01 14:52:50;;;;;;;;;2.00;2.00;;;;;;;;5077964;28;9334;-72
2023/02/01 14:55:22;;;;;;;;;3.50;2.00;;;;;;;;5096734;27;9605;-72
2023/02/01 14:57:52;;;;;;;;;2.00;2.00;;;;;;;;5088611;28;10413;-72
2023/02/01 15:00:23;;;;;;;;;2.50;2.00;;;;;;;;5063794;27;9553;-72
2023/02/01 15:02:51;;;;;;;;;3.00;1.25;;;;;;;;5100567;28;9628;-72
2023/02/01 15:05:30;;;;;;;;;5.00;2.00;;;;;;;;5089554;28;10230;-74
2023/02/01 15:08:01;;;;;;;;;4.25;2.25;;;;;;;;5093541;28;9509;-75
2023/02/01 15:10:29;;;;;;;;;2.00;2.00;;;;;;;;5081125;28;9372;-71
2023/02/01 15:12:57;;;;;;;;;3.50;2.00;;;;;;;;5076507;28;9336;-72
2023/02/01 15:15:25;;;;;;;;;3.25;2.75;;;;;;;;5094810;28;10237;-72
2023/02/01 15:17:55;;;;;;;;;1.00;1.00;;;;;;;;5094690;28;9702;-75
2023/02/01 15:20:25;;;;;;;;;3.00;3.00;;;;;;;;5083694;28;9520;-72
2023/02/01 15:23:00;;;;;;;;;4.00;3.00;;;;;;;;5095720;28;9692;-73
2023/02/01 15:25:29;;;;;;;;;1.75;1.75;;;;;;;;5096419;28;9686;-73
2023/02/01 15:27:57;;;;;;;;;3.50;2.50;;;;;;;;5092945;28;9641;-73
2023/02/01 15:30:27;;;;;;;;;5.50;2.00;;;;;;;;5097335;28;9708;-73
2023/02/01 15:33:07;;;;;;;;;2.00;2.00;;;;;;;;5099359;28;9918;-74
2023/02/01 15:35:43;;;;;;;;;3.00;2.00;;;;;;;;5090674;27;9865;-73
2023/02/01 15:38:22;;;;;;;;;5.00;2.00;;;;;;;;5097522;28;10016;-72
2023/02/01 15:41:00;;;;;;;;;1.00;1.00;;;;;;;;5098038;27;10161;-73
2023/02/01 15:43:29;;;;;;;;;1.25;1.25;;;;;;;;5095313;28;9933;-74
2023/02/01 15:45:58;;;;;;;;;3.00;3.00;;;;;;;;5099536;28;10073;-74